sensor_id;sensor_type;location;lat;lon;timestamp;pressure;altitude;pressure_sealevel;temperature;humidity
14273;BME280;7220;49.450;11.052;2023-03-14T00:02:31;96411.84;;;9.72;100.00
14273;BME280;7220;49.450;11.052;2023-03-14T00:06:31;96420.53;;;9.74;100.00
14273;BME280;7220;49.450;11.052;2023-03-14T00:10:35;96427.97;;;9.35;100.00
14273;BME280;7220;49.450;11.052;2023-03-14T00:14:36;96418.22;;;9.46;100.00
14273;BME280;7220;49.450;11.052;2023-03-14T00:18:37;96416.91;;;9.75;100.00
14273;BME280;7220;49.450;11.052;2023-03-14T00:22:38;96433.41;;;9.67;100.00
14273;BME280;7220;49.450;11.052;2023-03-14T00:26:38;96437.16;;;9.76;100.00
14273;BME280;7220;49.450;11.052;2023-03-14T00:30:39;96434.50;;;9.65;100.00
14273;BME280;7220;49.450;11.052;2023-03-14T00:34:39;96437.63;;;9.70;100.00
14273;BME280;7220;49.450;11.052;2023-03-14T00:38:40;96459.09;;;9.78;100.00
14273;BME280;7220;49.450;11.052;2023-03-14T00:42:41;96461.50;;;9.81;100.00
14273;BME280;7220;49.450;11.052;2023-03-14T00:46:41;96466.69;;;9.83;100.00
14273;BME280;7220;49.450;11.052;2023-03-14T00:50:42;96485.63;;;9.78;100.00
14273;BME280;7220;49.450;11.052;2023-03-14T00:54:42;96485.16;;;9.84;100.00
14273;BME280;7220;49.450;11.052;2023-03-14T00:58:42;96493.09;;;9.73;100.00
14273;BME280;7220;49.450;11.052;2023-03-14T01:02:43;96482.03;;;9.90;100.00
14273;BME280;7220;49.450;11.052;2023-03-14T01:06:43;96471.41;;;10.13;100.00
14273;BME280;7220;49.450;11.052;2023-03-14T01:10:44;96449.31;;;10.13;100.00
14273;BME280;7220;49.450;11.052;2023-03-14T01:14:44;96405.75;;;10.15;100.00
14273;BME280;7220;49.450;11.052;2023-03-14T01:18:45;96419.41;;;9.99;100.00
14273;BME280;7220;49.450;11.052;2023-03-14T01:22:46;96424.88;;;9.75;100.00
14273;BME280;7220;49.450;11.052;2023-03-14T01:26:46;96446.69;;;9.67;100.00
14273;BME280;7220;49.450;11.052;2023-03-14T01:30:46;96410.13;;;9.93;100.00
14273;BME280;7220;49.450;11.052;2023-03-14T01:34:47;96388.16;;;10.14;100.00
14273;BME280;7220;49.450;11.052;2023-03-14T01:38:47;96392.81;;;10.22;100.00
14273;BME280;7220;49.450;11.052;2023-03-14T01:42:58;96399.72;;;10.13;100.00
14273;BME280;7220;49.450;11.052;2023-03-14T01:47:06;96398.91;;;10.01;100.00
14273;BME280;7220;49.450;11.052;2023-03-14T01:51:09;96423.88;;;9.99;100.00
14273;BME280;7220;49.450;11.052;2023-03-14T01:55:23;96415.44;;;10.05;100.00
14273;BME280;7220;49.450;11.052;2023-03-14T01:59:25;96447.28;;;10.16;100.00
14273;BME280;7220;49.450;11.052;2023-03-14T02:03:27;96444.03;;;10.13;100.00
14273;BME280;7220;49.450;11.052;2023-03-14T02:07:49;96448.94;;;10.29;100.00
14273;BME280;7220;49.450;11.052;2023-03-14T02:11:50;96445.44;;;10.17;100.00
14273;BME280;7220;49.450;11.052;2023-03-14T02:15:51;96441.31;;;10.24;100.00
14273;BME280;7220;49.450;11.052;2023-03-14T02:24:09;96411.41;;;10.22;100.00
14273;BME280;7220;49.450;11.052;2023-03-14T02:28:15;96409.69;;;10.32;100.00
14273;BME280;7220;49.450;11.052;2023-03-14T02:32:16;96395.84;;;10.40;100.00
14273;BME280;7220;49.450;11.052;2023-03-14T02:36:18;96392.81;;;10.33;100.00
14273;BME280;7220;49.450;11.052;2023-03-14T02:40:20;96398.13;;;10.22;100.00
14273;BME280;7220;49.450;11.052;2023-03-14T02:44:21;96381.19;;;9.90;100.00
14273;BME280;7220;49.450;11.052;2023-03-14T02:48:26;96376.72;;;9.91;100.00
14273;BME280;7220;49.450;11.052;2023-03-14T02:52:28;96384.09;;;9.99;100.00
14273;BME280;7220;49.450;11.052;2023-03-14T02:56:29;96375.44;;;9.85;100.00
14273;BME280;7220;49.450;11.052;2023-03-14T03:00:29;96363.22;;;9.94;100.00
14273;BME280;7220;49.450;11.052;2023-03-14T03:04:30;96351.66;;;9.95;100.00
14273;BME280;7220;49.450;11.052;2023-03-14T03:08:31;96357.31;;;9.90;100.00
14273;BME280;7220;49.450;11.052;2023-03-14T03:12:31;96365.78;;;9.84;100.00
14273;BME280;7220;49.450;11.052;2023-03-14T03:16:31;96370.00;;;9.87;100.00
14273;BME280;7220;49.450;11.052;2023-03-14T03:20:32;96357.53;;;9.99;100.00
14273;BME280;7220;49.450;11.052;2023-03-14T03:24:32;96348.91;;;9.74;100.00
14273;BME280;7220;49.450;11.052;2023-03-14T03:28:32;96349.41;;;9.68;100.00
14273;BME280;7220;49.450;11.052;2023-03-14T03:32:33;96351.19;;;9.67;100.00
14273;BME280;7220;49.450;11.052;2023-03-14T03:36:34;96335.50;;;9.75;100.00
14273;BME280;7220;49.450;11.052;2023-03-14T03:40:34;96352.88;;;9.79;100.00
14273;BME280;7220;49.450;11.052;2023-03-14T03:44:34;96353.25;;;9.75;100.00
14273;BME280;7220;49.450;11.052;2023-03-14T03:48:35;96349.88;;;9.73;100.00
14273;BME280;7220;49.450;11.052;2023-03-14T03:52:36;96343.25;;;9.56;100.00
14273;BME280;7220;49.450;11.052;2023-03-14T03:56:36;96349.41;;;9.68;100.00
14273;BME280;7220;49.450;11.052;2023-03-14T04:00:36;96327.47;;;9.54;100.00
14273;BME280;7220;49.450;11.052;2023-03-14T04:04:37;96323.59;;;9.58;100.00
14273;BME280;7220;49.450;11.052;2023-03-14T04:08:38;96312.16;;;9.58;100.00
14273;BME280;7220;49.450;11.052;2023-03-14T04:12:39;96298.03;;;9.69;100.00
14273;BME280;7220;49.450;11.052;2023-03-14T04:16:39;96296.41;;;9.45;100.00
14273;BME280;7220;49.450;11.052;2023-03-14T04:20:40;96307.47;;;9.39;100.00
14273;BME280;7220;49.450;11.052;2023-03-14T04:24:40;96307.84;;;9.45;100.00
14273;BME280;7220;49.450;11.052;2023-03-14T04:28:40;96288.81;;;9.40;100.00
14273;BME280;7220;49.450;11.052;2023-03-14T04:32:40;96278.94;;;9.31;100.00
14273;BME280;7220;49.450;11.052;2023-03-14T04:36:41;96286.97;;;9.52;100.00
14273;BME280;7220;49.450;11.052;2023-03-14T04:40:42;96293.47;;;9.59;100.00
14273;BME280;7220;49.450;11.052;2023-03-14T04:44:42;96290.56;;;9.62;100.00
14273;BME280;7220;49.450;11.052;2023-03-14T04:48:43;96283.78;;;9.70;100.00
14273;BME280;7220;49.450;11.052;2023-03-14T04:52:43;96301.44;;;9.48;100.00
14273;BME280;7220;49.450;11.052;2023-03-14T04:56:44;96303.63;;;9.43;100.00
14273;BME280;7220;49.450;11.052;2023-03-14T05:00:46;96314.56;;;9.50;100.00
14273;BME280;7220;49.450;11.052;2023-03-14T05:04:46;96303.13;;;9.60;100.00
14273;BME280;7220;49.450;11.052;2023-03-14T05:08:46;96308.88;;;9.66;100.00
14273;BME280;7220;49.450;11.052;2023-03-14T05:12:47;96308.19;;;9.52;100.00
14273;BME280;7220;49.450;11.052;2023-03-14T05:16:47;96302.88;;;9.29;100.00
14273;BME280;7220;49.450;11.052;2023-03-14T05:20:50;96289.41;;;9.32;100.00
14273;BME280;7220;49.450;11.052;2023-03-14T05:24:50;96279.50;;;9.57;100.00
14273;BME280;7220;49.450;11.052;2023-03-14T05:28:51;96277.06;;;9.54;100.00
14273;BME280;7220;49.450;11.052;2023-03-14T05:32:51;96264.75;;;9.65;100.00
14273;BME280;7220;49.450;11.052;2023-03-14T05:36:51;96268.81;;;9.25;100.00
14273;BME280;7220;49.450;11.052;2023-03-14T05:40:52;96260.03;;;9.13;100.00
14273;BME280;7220;49.450;11.052;2023-03-14T05:44:52;96251.22;;;9.24;100.00
14273;BME280;7220;49.450;11.052;2023-03-14T05:48:52;96255.78;;;9.10;100.00
14273;BME280;7220;49.450;11.052;2023-03-14T05:52:53;96251.59;;;9.19;100.00
14273;BME280;7220;49.450;11.052;2023-03-14T05:56:53;96253.16;;;9.33;100.00
14273;BME280;7220;49.450;11.052;2023-03-14T06:00:53;96242.91;;;9.28;100.00
14273;BME280;7220;49.450;11.052;2023-03-14T06:04:54;96245.34;;;9.20;100.00
14273;BME280;7220;49.450;11.052;2023-03-14T06:08:54;96252.78;;;9.15;100.00
14273;BME280;7220;49.450;11.052;2023-03-14T06:12:54;96244.56;;;9.29;100.00
14273;BME280;7220;49.450;11.052;2023-03-14T06:16:54;96251.09;;;9.37;100.00
14273;BME280;7220;49.450;11.052;2023-03-14T06:20:55;96253.25;;;9.31;100.00
14273;BME280;7220;49.450;11.052;2023-03-14T06:24:55;96247.44;;;9.49;100.00
14273;BME280;7220;49.450;11.052;2023-03-14T06:28:56;96252.72;;;9.60;100.00
14273;BME280;7220;49.450;11.052;2023-03-14T06:32:56;96249.34;;;9.58;100.00
14273;BME280;7220;49.450;11.052;2023-03-14T06:36:56;96249.28;;;9.81;100.00
14273;BME280;7220;49.450;11.052;2023-03-14T06:41:03;96248.84;;;9.65;100.00
14273;BME280;7220;49.450;11.052;2023-03-14T06:45:05;96248.94;;;9.74;100.00
14273;BME280;7220;49.450;11.052;2023-03-14T06:49:05;96244.00;;;9.70;100.00
14273;BME280;7220;49.450;11.052;2023-03-14T06:53:05;96244.88;;;9.59;100.00
14273;BME280;7220;49.450;11.052;2023-03-14T06:57:06;96251.38;;;9.66;100.00
14273;BME280;7220;49.450;11.052;2023-03-14T07:01:22;96254.63;;;9.70;100.00
14273;BME280;7220;49.450;11.052;2023-03-14T07:05:23;96270.28;;;9.84;100.00
14273;BME280;7220;49.450;11.052;2023-03-14T07:09:24;96267.41;;;9.76;100.00
14273;BME280;7220;49.450;11.052;2023-03-14T07:13:24;96257.44;;;10.01;100.00
14273;BME280;7220;49.450;11.052;2023-03-14T07:17:24;96255.88;;;10.19;100.00
14273;BME280;7220;49.450;11.052;2023-03-14T07:21:25;96271.72;;;10.21;100.00
14273;BME280;7220;49.450;11.052;2023-03-14T07:25:25;96266.41;;;10.21;100.00
14273;BME280;7220;49.450;11.052;2023-03-14T07:29:26;96263.19;;;10.06;100.00
14273;BME280;7220;49.450;11.052;2023-03-14T07:33:26;96257.88;;;10.06;100.00
14273;BME280;7220;49.450;11.052;2023-03-14T07:37:26;96263.63;;;10.11;100.00
14273;BME280;7220;49.450;11.052;2023-03-14T07:41:27;96261.06;;;10.00;100.00
14273;BME280;7220;49.450;11.052;2023-03-14T07:45:27;96260.09;;;10.01;100.00
14273;BME280;7220;49.450;11.052;2023-03-14T07:49:28;96257.66;;;9.98;100.00
14273;BME280;7220;49.450;11.052;2023-03-14T07:53:28;96248.50;;;10.23;100.00
14273;BME280;7220;49.450;11.052;2023-03-14T07:57:28;96259.06;;;10.13;100.00
14273;BME280;7220;49.450;11.052;2023-03-14T08:01:29;96260.09;;;10.22;100.00
14273;BME280;7220;49.450;11.052;2023-03-14T08:05:29;96255.09;;;10.40;100.00
14273;BME280;7220;49.450;11.052;2023-03-14T08:09:30;96263.09;;;10.29;100.00
14273;BME280;7220;49.450;11.052;2023-03-14T08:13:30;96264.97;;;10.49;100.00
14273;BME280;7220;49.450;11.052;2023-03-14T08:17:30;96259.50;;;10.51;100.00
14273;BME280;7220;49.450;11.052;2023-03-14T08:21:31;96250.19;;;10.56;100.00
14273;BME280;7220;49.450;11.052;2023-03-14T08:25:31;96236.44;;;10.51;100.00
14273;BME280;7220;49.450;11.052;2023-03-14T08:29:32;96237.97;;;10.75;100.00
14273;BME280;7220;49.450;11.052;2023-03-14T08:33:32;96243.56;;;10.72;100.00
14273;BME280;7220;49.450;11.052;2023-03-14T08:37:34;96245.06;;;10.96;100.00
14273;BME280;7220;49.450;11.052;2023-03-14T08:41:35;96238.50;;;11.00;100.00
14273;BME280;7220;49.450;11.052;2023-03-14T08:45:41;96227.25;;;11.17;100.00
14273;BME280;7220;49.450;11.052;2023-03-14T08:49:41;96227.25;;;11.17;100.00
14273;BME280;7220;49.450;11.052;2023-03-14T08:53:43;96226.44;;;11.27;100.00
14273;BME280;7220;49.450;11.052;2023-03-14T08:57:43;96231.38;;;11.41;100.00
14273;BME280;7220;49.450;11.052;2023-03-14T09:01:43;96228.16;;;11.47;100.00
14273;BME280;7220;49.450;11.052;2023-03-14T09:05:44;96228.88;;;11.59;97.35
14273;BME280;7220;49.450;11.052;2023-03-14T09:09:44;96224.81;;;11.55;97.39
14273;BME280;7220;49.450;11.052;2023-03-14T09:13:45;96229.34;;;11.74;96.58
14273;BME280;7220;49.450;11.052;2023-03-14T09:17:45;96224.56;;;11.88;94.99
14273;BME280;7220;49.450;11.052;2023-03-14T09:21:46;96222.88;;;11.87;92.95
14273;BME280;7220;49.450;11.052;2023-03-14T09:25:46;96218.19;;;12.00;91.99
14273;BME280;7220;49.450;11.052;2023-03-14T09:29:46;96209.50;;;12.18;91.92
14273;BME280;7220;49.450;11.052;2023-03-14T09:33:47;96213.09;;;12.36;91.05
14273;BME280;7220;49.450;11.052;2023-03-14T09:37:47;96209.72;;;12.54;89.20
14273;BME280;7220;49.450;11.052;2023-03-14T09:41:49;96210.53;;;12.64;87.92
14273;BME280;7220;49.450;11.052;2023-03-14T09:45:51;96213.66;;;12.50;87.87
14273;BME280;7220;49.450;11.052;2023-03-14T09:49:52;96218.41;;;12.56;87.27
14273;BME280;7220;49.450;11.052;2023-03-14T09:53:53;96223.63;;;12.38;85.09
14273;BME280;7220;49.450;11.052;2023-03-14T09:57:57;96213.81;;;12.38;86.49
14273;BME280;7220;49.450;11.052;2023-03-14T10:02:22;96218.53;;;12.54;86.81
14273;BME280;7220;49.450;11.052;2023-03-14T10:06:28;96217.88;;;12.33;88.05
14273;BME280;7220;49.450;11.052;2023-03-14T10:10:30;96212.00;;;12.29;86.95
14273;BME280;7220;49.450;11.052;2023-03-14T10:14:36;96216.06;;;12.33;87.29
14273;BME280;7220;49.450;11.052;2023-03-14T10:18:37;96207.66;;;12.38;86.81
14273;BME280;7220;49.450;11.052;2023-03-14T10:22:37;96195.16;;;12.38;87.01
14273;BME280;7220;49.450;11.052;2023-03-14T10:26:38;96193.63;;;12.26;86.02
14273;BME280;7220;49.450;11.052;2023-03-14T10:30:44;96192.81;;;12.15;85.75
14273;BME280;7220;49.450;11.052;2023-03-14T10:35:04;96192.09;;;12.23;83.03
14273;BME280;7220;49.450;11.052;2023-03-14T10:39:22;96179.19;;;12.38;82.98
14273;BME280;7220;49.450;11.052;2023-03-14T10:43:26;96192.63;;;12.46;81.70
14273;BME280;7220;49.450;11.052;2023-03-14T10:47:28;96193.72;;;12.54;79.73
14273;BME280;7220;49.450;11.052;2023-03-14T10:51:29;96184.91;;;12.53;80.27
14273;BME280;7220;49.450;11.052;2023-03-14T10:55:40;96206.66;;;12.29;79.21
14273;BME280;7220;49.450;11.052;2023-03-14T10:59:42;96204.69;;;12.31;80.56
14273;BME280;7220;49.450;11.052;2023-03-14T11:03:51;96208.06;;;12.13;81.92
14273;BME280;7220;49.450;11.052;2023-03-14T11:08:01;96214.50;;;12.21;82.06
14273;BME280;7220;49.450;11.052;2023-03-14T11:25:13;96234.09;;;11.80;87.37
14273;BME280;7220;49.450;11.052;2023-03-14T11:29:28;96247.84;;;11.86;91.45
14273;BME280;7220;49.450;11.052;2023-03-14T11:33:47;96225.56;;;11.77;96.23
14273;BME280;7220;49.450;11.052;2023-03-14T11:37:56;96220.66;;;11.92;96.27
14273;BME280;7220;49.450;11.052;2023-03-14T11:42:01;96205.38;;;13.56;90.67
14273;BME280;7220;49.450;11.052;2023-03-14T11:50:28;96173.44;;;14.45;80.79
14273;BME280;7220;49.450;11.052;2023-03-14T11:54:50;96177.72;;;13.93;82.67
14273;BME280;7220;49.450;11.052;2023-03-14T11:58:58;96182.94;;;13.49;84.54
14273;BME280;7220;49.450;11.052;2023-03-14T12:07:16;96164.19;;;13.40;82.69
14273;BME280;7220;49.450;11.052;2023-03-14T12:11:23;96164.44;;;14.46;76.93
14273;BME280;7220;49.450;11.052;2023-03-14T12:15:25;96154.13;;;15.12;71.97
14273;BME280;7220;49.450;11.052;2023-03-14T12:19:28;96149.44;;;15.22;68.81
14273;BME280;7220;49.450;11.052;2023-03-14T12:23:36;96176.31;;;14.70;68.67
14273;BME280;7220;49.450;11.052;2023-03-14T12:32:08;96152.59;;;14.04;70.19
14273;BME280;7220;49.450;11.052;2023-03-14T12:36:18;96171.00;;;13.89;69.42
14273;BME280;7220;49.450;11.052;2023-03-14T12:40:31;96151.38;;;13.98;70.14
14273;BME280;7220;49.450;11.052;2023-03-14T12:44:53;96144.75;;;13.84;70.54
14273;BME280;7220;49.450;11.052;2023-03-14T12:49:10;96143.78;;;13.67;70.68
14273;BME280;7220;49.450;11.052;2023-03-14T12:57:50;96149.03;;;13.31;72.71
14273;BME280;7220;49.450;11.052;2023-03-14T13:01:56;96203.66;;;12.99;81.03
14273;BME280;7220;49.450;11.052;2023-03-14T13:05:59;96197.53;;;12.41;86.14
14273;BME280;7220;49.450;11.052;2023-03-14T13:10:18;96211.44;;;12.15;86.06
14273;BME280;7220;49.450;11.052;2023-03-14T13:14:19;96200.75;;;11.96;86.15
14273;BME280;7220;49.450;11.052;2023-03-14T13:18:50;96214.22;;;11.84;87.43
14273;BME280;7220;49.450;11.052;2023-03-14T13:22:51;96211.13;;;11.79;91.28
14273;BME280;7220;49.450;11.052;2023-03-14T13:26:55;96222.00;;;11.47;95.88
14273;BME280;7220;49.450;11.052;2023-03-14T13:31:02;96213.31;;;11.35;100.00
14273;BME280;7220;49.450;11.052;2023-03-14T13:35:17;96248.13;;;10.91;100.00
14273;BME280;7220;49.450;11.052;2023-03-14T13:39:20;96243.09;;;10.98;100.00
14273;BME280;7220;49.450;11.052;2023-03-14T13:43:30;96243.03;;;10.78;100.00
14273;BME280;7220;49.450;11.052;2023-03-14T13:47:31;96247.09;;;10.82;100.00
14273;BME280;7220;49.450;11.052;2023-03-14T13:51:32;96246.84;;;10.85;100.00
14273;BME280;7220;49.450;11.052;2023-03-14T13:55:33;96260.28;;;10.63;100.00
14273;BME280;7220;49.450;11.052;2023-03-14T13:59:34;96253.56;;;10.26;100.00
14273;BME280;7220;49.450;11.052;2023-03-14T14:03:38;96259.56;;;10.07;100.00
14273;BME280;7220;49.450;11.052;2023-03-14T14:07:40;96274.31;;;10.00;100.00
14273;BME280;7220;49.450;11.052;2023-03-14T14:11:59;96331.47;;;10.04;100.00
14273;BME280;7220;49.450;11.052;2023-03-14T14:16:01;96380.69;;;9.97;100.00
14273;BME280;7220;49.450;11.052;2023-03-14T14:20:06;96336.31;;;9.87;100.00
14273;BME280;7220;49.450;11.052;2023-03-14T14:24:11;96443.56;;;9.73;100.00
14273;BME280;7220;49.450;11.052;2023-03-14T14:28:28;96396.66;;;9.74;100.00
14273;BME280;7220;49.450;11.052;2023-03-14T14:32:39;96389.53;;;9.63;100.00
14273;BME280;7220;49.450;11.052;2023-03-14T14:36:41;96420.28;;;9.54;100.00
14273;BME280;7220;49.450;11.052;2023-03-14T14:40:47;96439.75;;;9.19;100.00
14273;BME280;7220;49.450;11.052;2023-03-14T14:44:49;96457.41;;;9.66;100.00
14273;BME280;7220;49.450;11.052;2023-03-14T14:48:55;96485.78;;;9.29;100.00
14273;BME280;7220;49.450;11.052;2023-03-14T14:53:18;96522.88;;;9.18;100.00
14273;BME280;7220;49.450;11.052;2023-03-14T14:57:22;96535.97;;;8.84;100.00
14273;BME280;7220;49.450;11.052;2023-03-14T15:01:24;96555.47;;;8.59;100.00
14273;BME280;7220;49.450;11.052;2023-03-14T15:05:27;96561.28;;;8.38;100.00
14273;BME280;7220;49.450;11.052;2023-03-14T15:09:30;96606.66;;;7.95;100.00
14273;BME280;7220;49.450;11.052;2023-03-14T15:13:31;96604.13;;;7.93;100.00
14273;BME280;7220;49.450;11.052;2023-03-14T15:17:31;96638.03;;;7.73;100.00
14273;BME280;7220;49.450;11.052;2023-03-14T15:21:32;96625.75;;;7.60;100.00
14273;BME280;7220;49.450;11.052;2023-03-14T15:25:33;96659.88;;;7.50;100.00
14273;BME280;7220;49.450;11.052;2023-03-14T15:29:33;96667.06;;;7.48;100.00
14273;BME280;7220;49.450;11.052;2023-03-14T15:33:33;96708.25;;;7.37;100.00
14273;BME280;7220;49.450;11.052;2023-03-14T15:37:34;96682.50;;;7.54;100.00
14273;BME280;7220;49.450;11.052;2023-03-14T15:41:35;96699.34;;;7.53;100.00
14273;BME280;7220;49.450;11.052;2023-03-14T15:45:35;96691.19;;;7.56;100.00
14273;BME280;7220;49.450;11.052;2023-03-14T15:49:36;96692.72;;;7.46;100.00
14273;BME280;7220;49.450;11.052;2023-03-14T15:53:36;96696.00;;;7.36;100.00
14273;BME280;7220;49.450;11.052;2023-03-14T15:57:37;96714.78;;;7.32;100.00
14273;BME280;7220;49.450;11.052;2023-03-14T16:01:37;96713.78;;;7.47;100.00
14273;BME280;7220;49.450;11.052;2023-03-14T16:05:39;96724.84;;;7.67;100.00
14273;BME280;7220;49.450;11.052;2023-03-14T16:09:39;96731.09;;;7.66;99.95
14273;BME280;7220;49.450;11.052;2023-03-14T16:13:40;96742.75;;;7.49;97.79
14273;BME280;7220;49.450;11.052;2023-03-14T16:17:41;96748.81;;;7.51;91.46
14273;BME280;7220;49.450;11.052;2023-03-14T16:21:43;96776.63;;;7.15;90.55
14273;BME280;7220;49.450;11.052;2023-03-14T16:25:44;96759.34;;;7.23;91.00
14273;BME280;7220;49.450;11.052;2023-03-14T16:29:44;96859.38;;;7.30;89.32
14273;BME280;7220;49.450;11.052;2023-03-14T16:33:47;96777.75;;;7.25;87.80
14273;BME280;7220;49.450;11.052;2023-03-14T16:37:48;96796.81;;;7.01;87.74
14273;BME280;7220;49.450;11.052;2023-03-14T16:41:48;96801.72;;;7.07;88.68
14273;BME280;7220;49.450;11.052;2023-03-14T16:45:49;96812.28;;;7.07;88.17
14273;BME280;7220;49.450;11.052;2023-03-14T16:49:49;96839.47;;;7.09;85.90
14273;BME280;7220;49.450;11.052;2023-03-14T16:53:50;96848.53;;;7.20;84.72
14273;BME280;7220;49.450;11.052;2023-03-14T16:57:50;96842.09;;;7.09;85.11
14273;BME280;7220;49.450;11.052;2023-03-14T17:01:51;96847.94;;;7.15;81.49
14273;BME280;7220;49.450;11.052;2023-03-14T17:05:51;96860.03;;;7.33;80.92
14273;BME280;7220;49.450;11.052;2023-03-14T17:09:53;96862.69;;;7.19;82.28
14273;BME280;7220;49.450;11.052;2023-03-14T17:13:54;96874.38;;;7.15;81.25
14273;BME280;7220;49.450;11.052;2023-03-14T17:17:54;96881.25;;;7.17;80.88
14273;BME280;7220;49.450;11.052;2023-03-14T17:21:55;96879.75;;;7.13;80.49
14273;BME280;7220;49.450;11.052;2023-03-14T17:25:55;96901.34;;;7.05;81.47
14273;BME280;7220;49.450;11.052;2023-03-14T17:29:56;96907.31;;;7.23;80.14
14273;BME280;7220;49.450;11.052;2023-03-14T17:33:56;96928.41;;;6.94;81.10
14273;BME280;7220;49.450;11.052;2023-03-14T17:37:56;96940.34;;;7.60;78.78
14273;BME280;7220;49.450;11.052;2023-03-14T17:41:56;96952.91;;;7.56;76.58
14273;BME280;7220;49.450;11.052;2023-03-14T17:45:58;96961.56;;;8.01;75.33
14273;BME280;7220;49.450;11.052;2023-03-14T17:49:59;96965.25;;;7.26;77.29
14273;BME280;7220;49.450;11.052;2023-03-14T17:54:04;96982.53;;;7.47;76.66
14273;BME280;7220;49.450;11.052;2023-03-14T17:58:04;96999.94;;;7.65;77.76
14273;BME280;7220;49.450;11.052;2023-03-14T18:02:05;97025.44;;;7.66;80.06
14273;BME280;7220;49.450;11.052;2023-03-14T18:06:07;97022.00;;;7.35;84.81
14273;BME280;7220;49.450;11.052;2023-03-14T18:10:08;97052.06;;;7.63;84.66
14273;BME280;7220;49.450;11.052;2023-03-14T18:14:09;97063.94;;;7.41;87.59
14273;BME280;7220;49.450;11.052;2023-03-14T18:18:14;97071.84;;;7.41;88.67
14273;BME280;7220;49.450;11.052;2023-03-14T18:22:15;97079.25;;;7.51;88.03
14273;BME280;7220;49.450;11.052;2023-03-14T18:26:15;97084.59;;;7.49;88.31
14273;BME280;7220;49.450;11.052;2023-03-14T18:30:16;97084.78;;;7.77;87.08
14273;BME280;7220;49.450;11.052;2023-03-14T18:34:19;97102.28;;;7.49;88.21
14273;BME280;7220;49.450;11.052;2023-03-14T18:38:19;97115.16;;;7.08;90.33
14273;BME280;7220;49.450;11.052;2023-03-14T18:42:20;97139.00;;;7.23;90.20
14273;BME280;7220;49.450;11.052;2023-03-14T18:46:21;97157.22;;;7.28;91.43
14273;BME280;7220;49.450;11.052;2023-03-14T18:50:21;97168.66;;;7.12;92.11
14273;BME280;7220;49.450;11.052;2023-03-14T18:54:21;97170.31;;;6.99;93.82
14273;BME280;7220;49.450;11.052;2023-03-14T18:58:22;97167.47;;;7.18;93.11
14273;BME280;7220;49.450;11.052;2023-03-14T19:02:27;97174.94;;;7.25;93.03
14273;BME280;7220;49.450;11.052;2023-03-14T19:06:28;97195.59;;;7.19;94.01
14273;BME280;7220;49.450;11.052;2023-03-14T19:10:31;97186.91;;;7.33;92.19
14273;BME280;7220;49.450;11.052;2023-03-14T19:14:36;97205.66;;;7.28;93.70
14273;BME280;7220;49.450;11.052;2023-03-14T19:18:36;97213.81;;;7.39;94.09
14273;BME280;7220;49.450;11.052;2023-03-14T19:22:36;97194.84;;;7.01;95.60
14273;BME280;7220;49.450;11.052;2023-03-14T19:26:37;97205.66;;;7.28;94.01
14273;BME280;7220;49.450;11.052;2023-03-14T19:30:37;97211.09;;;7.25;94.71
14273;BME280;7220;49.450;11.052;2023-03-14T19:34:38;97233.63;;;7.16;94.55
14273;BME280;7220;49.450;11.052;2023-03-14T19:38:38;97232.16;;;7.42;93.73
14273;BME280;7220;49.450;11.052;2023-03-14T19:42:38;97224.91;;;7.46;93.19
14273;BME280;7220;49.450;11.052;2023-03-14T19:46:39;97243.13;;;7.67;92.21
14273;BME280;7220;49.450;11.052;2023-03-14T19:50:40;97249.03;;;7.56;92.86
14273;BME280;7220;49.450;11.052;2023-03-14T19:54:42;97238.19;;;7.61;92.15
14273;BME280;7220;49.450;11.052;2023-03-14T19:58:42;97232.66;;;7.49;93.34
14273;BME280;7220;49.450;11.052;2023-03-14T20:02:44;97250.16;;;7.52;92.57
14273;BME280;7220;49.450;11.052;2023-03-14T20:06:45;97230.34;;;7.43;93.38
14273;BME280;7220;49.450;11.052;2023-03-14T20:10:45;97240.16;;;7.57;93.03
14273;BME280;7220;49.450;11.052;2023-03-14T20:14:46;97245.19;;;7.46;93.67
14273;BME280;7220;49.450;11.052;2023-03-14T20:18:46;97255.94;;;7.10;95.09
14273;BME280;7220;49.450;11.052;2023-03-14T20:22:47;97256.09;;;7.07;94.73
14273;BME280;7220;49.450;11.052;2023-03-14T20:26:47;97257.19;;;6.87;95.87
14273;BME280;7220;49.450;11.052;2023-03-14T20:30:47;97279.59;;;6.80;96.70
14273;BME280;7220;49.450;11.052;2023-03-14T20:34:48;97264.50;;;6.82;97.19
14273;BME280;7220;49.450;11.052;2023-03-14T20:38:48;97274.50;;;6.93;97.40
14273;BME280;7220;49.450;11.052;2023-03-14T20:42:49;97284.56;;;7.18;95.77
14273;BME280;7220;49.450;11.052;2023-03-14T20:46:50;97286.09;;;6.90;99.20
14273;BME280;7220;49.450;11.052;2023-03-14T20:50:51;97285.53;;;6.68;100.00
14273;BME280;7220;49.450;11.052;2023-03-14T20:54:51;97296.78;;;6.71;100.00
14273;BME280;7220;49.450;11.052;2023-03-14T20:58:51;97294.00;;;6.57;100.00
14273;BME280;7220;49.450;11.052;2023-03-14T21:02:52;97306.59;;;6.17;100.00
14273;BME280;7220;49.450;11.052;2023-03-14T21:06:53;97308.63;;;5.92;100.00
14273;BME280;7220;49.450;11.052;2023-03-14T21:10:54;97329.03;;;5.89;100.00
14273;BME280;7220;49.450;11.052;2023-03-14T21:14:55;97330.38;;;5.61;100.00
14273;BME280;7220;49.450;11.052;2023-03-14T21:18:55;97356.72;;;5.42;100.00
14273;BME280;7220;49.450;11.052;2023-03-14T21:22:56;97368.25;;;5.39;100.00
14273;BME280;7220;49.450;11.052;2023-03-14T21:26:56;97353.63;;;4.94;100.00
14273;BME280;7220;49.450;11.052;2023-03-14T21:31:05;97371.41;;;4.68;100.00
14273;BME280;7220;49.450;11.052;2023-03-14T21:35:06;97379.03;;;4.53;100.00
14273;BME280;7220;49.450;11.052;2023-03-14T21:39:06;97373.66;;;4.56;100.00
14273;BME280;7220;49.450;11.052;2023-03-14T21:43:07;97383.59;;;4.50;100.00
14273;BME280;7220;49.450;11.052;2023-03-14T21:47:08;97384.50;;;4.49;100.00
14273;BME280;7220;49.450;11.052;2023-03-14T21:51:08;97402.25;;;4.44;100.00
14273;BME280;7220;49.450;11.052;2023-03-14T21:55:09;97410.09;;;4.45;100.00
14273;BME280;7220;49.450;11.052;2023-03-14T21:59:12;97436.09;;;4.31;100.00